sensor_id;sensor_type;location;lat;lon;timestamp;P1;durP1;ratioP1;P2;durP2;ratioP2
16822;SDS011;8528;49.976;11.858;2024-03-23T00:53:25;4.77;;;3.90;;
16822;SDS011;8528;49.976;11.858;2024-03-23T00:55:51;6.77;;;4.77;;
16822;SDS011;8528;49.976;11.858;2024-03-23T00:58:17;4.43;;;4.03;;
16822;SDS011;8528;49.976;11.858;2024-03-23T01:00:43;6.80;;;4.50;;
16822;SDS011;8528;49.976;11.858;2024-03-23T01:03:09;6.17;;;5.03;;
16822;SDS011;8528;49.976;11.858;2024-03-23T01:05:35;8.07;;;6.30;;
16822;SDS011;8528;49.976;11.858;2024-03-23T01:08:01;5.33;;;4.33;;
16822;SDS011;8528;49.976;11.858;2024-03-23T01:10:27;6.77;;;3.83;;
16822;SDS011;8528;49.976;11.858;2024-03-23T01:12:53;6.97;;;3.90;;
16822;SDS011;8528;49.976;11.858;2024-03-23T01:15:19;3.73;;;3.40;;
16822;SDS011;8528;49.976;11.858;2024-03-23T01:17:45;5.80;;;3.67;;
16822;SDS011;8528;49.976;11.858;2024-03-23T01:20:10;3.57;;;3.27;;
16822;SDS011;8528;49.976;11.858;2024-03-23T01:22:36;4.27;;;3.63;;
16822;SDS011;8528;49.976;11.858;2024-03-23T01:25:02;4.30;;;3.57;;
16822;SDS011;8528;49.976;11.858;2024-03-23T01:27:28;4.80;;;3.70;;
16822;SDS011;8528;49.976;11.858;2024-03-23T01:29:54;3.47;;;3.13;;
16822;SDS011;8528;49.976;11.858;2024-03-23T01:32:20;6.27;;;4.03;;
16822;SDS011;8528;49.976;11.858;2024-03-23T01:34:47;4.43;;;3.47;;
16822;SDS011;8528;49.976;11.858;2024-03-23T01:37:12;5.83;;;4.00;;
16822;SDS011;8528;49.976;11.858;2024-03-23T01:39:38;3.80;;;3.40;;
16822;SDS011;8528;49.976;11.858;2024-03-23T01:42:04;3.87;;;3.47;;
16822;SDS011;8528;49.976;11.858;2024-03-23T01:44:31;4.50;;;3.50;;
16822;SDS011;8528;49.976;11.858;2024-03-23T01:46:56;5.43;;;3.87;;
16822;SDS011;8528;49.976;11.858;2024-03-23T01:49:22;4.97;;;3.50;;
16822;SDS011;8528;49.976;11.858;2024-03-23T01:51:48;3.67;;;3.17;;
16822;SDS011;8528;49.976;11.858;2024-03-23T01:54:15;7.83;;;3.80;;
16822;SDS011;8528;49.976;11.858;2024-03-23T01:56:41;4.20;;;3.70;;
16822;SDS011;8528;49.976;11.858;2024-03-23T01:59:07;5.80;;;3.60;;
16822;SDS011;8528;49.976;11.858;2024-03-23T02:01:36;5.73;;;3.80;;
16822;SDS011;8528;49.976;11.858;2024-03-23T02:04:02;5.27;;;3.63;;
16822;SDS011;8528;49.976;11.858;2024-03-23T02:06:28;5.80;;;3.57;;
16822;SDS011;8528;49.976;11.858;2024-03-23T02:08:55;4.33;;;3.40;;
16822;SDS011;8528;49.976;11.858;2024-03-23T02:11:21;5.67;;;4.13;;
16822;SDS011;8528;49.976;11.858;2024-03-23T02:13:47;6.10;;;3.97;;
16822;SDS011;8528;49.976;11.858;2024-03-23T02:16:13;6.07;;;4.20;;
16822;SDS011;8528;49.976;11.858;2024-03-23T02:18:38;5.63;;;4.23;;
16822;SDS011;8528;49.976;11.858;2024-03-23T02:21:05;4.70;;;3.83;;
16822;SDS011;8528;49.976;11.858;2024-03-23T02:23:31;4.30;;;3.70;;
16822;SDS011;8528;49.976;11.858;2024-03-23T02:25:56;5.00;;;4.03;;
16822;SDS011;8528;49.976;11.858;2024-03-23T02:28:22;6.23;;;3.80;;
16822;SDS011;8528;49.976;11.858;2024-03-23T02:30:48;5.50;;;3.77;;
16822;SDS011;8528;49.976;11.858;2024-03-23T02:33:15;4.60;;;3.40;;
16822;SDS011;8528;49.976;11.858;2024-03-23T02:35:41;7.00;;;3.70;;
16822;SDS011;8528;49.976;11.858;2024-03-23T02:38:07;5.20;;;3.60;;
16822;SDS011;8528;49.976;11.858;2024-03-23T02:40:33;5.73;;;3.50;;
16822;SDS011;8528;49.976;11.858;2024-03-23T02:42:59;4.83;;;3.70;;
16822;SDS011;8528;49.976;11.858;2024-03-23T02:45:25;6.13;;;4.10;;
16822;SDS011;8528;49.976;11.858;2024-03-23T02:47:51;4.93;;;3.50;;
16822;SDS011;8528;49.976;11.858;2024-03-23T02:50:18;5.03;;;3.73;;
16822;SDS011;8528;49.976;11.858;2024-03-23T02:52:44;5.30;;;3.93;;
16822;SDS011;8528;49.976;11.858;2024-03-23T02:55:10;4.77;;;3.63;;
16822;SDS011;8528;49.976;11.858;2024-03-23T02:57:36;4.37;;;3.43;;
16822;SDS011;8528;49.976;11.858;2024-03-23T03:00:02;3.50;;;3.20;;
16822;SDS011;8528;49.976;11.858;2024-03-23T03:02:29;4.23;;;2.93;;
16822;SDS011;8528;49.976;11.858;2024-03-23T03:04:54;4.60;;;3.47;;
16822;SDS011;8528;49.976;11.858;2024-03-23T03:07:20;3.50;;;3.20;;
16822;SDS011;8528;49.976;11.858;2024-03-23T03:09:46;7.77;;;4.10;;
16822;SDS011;8528;49.976;11.858;2024-03-23T03:12:12;7.40;;;4.40;;
16822;SDS011;8528;49.976;11.858;2024-03-23T03:14:38;4.40;;;3.53;;
16822;SDS011;8528;49.976;11.858;2024-03-23T03:17:04;5.77;;;3.80;;
16822;SDS011;8528;49.976;11.858;2024-03-23T03:19:30;5.10;;;3.60;;
16822;SDS011;8528;49.976;11.858;2024-03-23T03:21:56;4.63;;;3.80;;
16822;SDS011;8528;49.976;11.858;2024-03-23T03:24:22;5.57;;;4.00;;
16822;SDS011;8528;49.976;11.858;2024-03-23T03:26:48;4.40;;;3.53;;
16822;SDS011;8528;49.976;11.858;2024-03-23T03:29:15;4.47;;;3.43;;
16822;SDS011;8528;49.976;11.858;2024-03-23T03:31:42;3.93;;;3.27;;
16822;SDS011;8528;49.976;11.858;2024-03-23T03:34:08;5.53;;;3.50;;
16822;SDS011;8528;49.976;11.858;2024-03-23T03:36:34;5.33;;;3.70;;
16822;SDS011;8528;49.976;11.858;2024-03-23T03:39:02;5.00;;;4.50;;
16822;SDS011;8528;49.976;11.858;2024-03-23T03:41:31;9.33;;;8.43;;
16822;SDS011;8528;49.976;11.858;2024-03-23T03:43:57;8.43;;;7.57;;
16822;SDS011;8528;49.976;11.858;2024-03-23T03:46:27;6.27;;;5.67;;
16822;SDS011;8528;49.976;11.858;2024-03-23T03:48:54;7.10;;;5.77;;
16822;SDS011;8528;49.976;11.858;2024-03-23T03:51:20;8.27;;;6.33;;
16822;SDS011;8528;49.976;11.858;2024-03-23T03:53:46;8.93;;;6.20;;
16822;SDS011;8528;49.976;11.858;2024-03-23T03:56:12;10.40;;;7.73;;
16822;SDS011;8528;49.976;11.858;2024-03-23T03:58:38;8.30;;;6.57;;
16822;SDS011;8528;49.976;11.858;2024-03-23T04:01:04;5.77;;;4.70;;
16822;SDS011;8528;49.976;11.858;2024-03-23T04:03:30;7.73;;;5.50;;
16822;SDS011;8528;49.976;11.858;2024-03-23T04:05:55;10.07;;;6.70;;
16822;SDS011;8528;49.976;11.858;2024-03-23T04:08:21;7.97;;;6.67;;
16822;SDS011;8528;49.976;11.858;2024-03-23T04:10:47;10.90;;;7.27;;
16822;SDS011;8528;49.976;11.858;2024-03-23T04:13:14;9.07;;;6.83;;
16822;SDS011;8528;49.976;11.858;2024-03-23T04:15:40;10.73;;;6.87;;
16822;SDS011;8528;49.976;11.858;2024-03-23T04:18:06;7.97;;;6.63;;
16822;SDS011;8528;49.976;11.858;2024-03-23T04:20:32;10.30;;;6.30;;
16822;SDS011;8528;49.976;11.858;2024-03-23T04:22:58;9.93;;;6.80;;
16822;SDS011;8528;49.976;11.858;2024-03-23T04:25:25;7.67;;;6.80;;
16822;SDS011;8528;49.976;11.858;2024-03-23T04:27:50;7.90;;;6.00;;
16822;SDS011;8528;49.976;11.858;2024-03-23T04:30:16;8.23;;;6.67;;
16822;SDS011;8528;49.976;11.858;2024-03-23T04:32:43;9.03;;;6.83;;
16822;SDS011;8528;49.976;11.858;2024-03-23T04:35:09;7.70;;;6.27;;
16822;SDS011;8528;49.976;11.858;2024-03-23T04:37:38;9.93;;;6.30;;
16822;SDS011;8528;49.976;11.858;2024-03-23T04:40:06;8.40;;;6.43;;
16822;SDS011;8528;49.976;11.858;2024-03-23T04:42:32;8.53;;;6.97;;
16822;SDS011;8528;49.976;11.858;2024-03-23T04:44:58;10.77;;;7.07;;
16822;SDS011;8528;49.976;11.858;2024-03-23T04:47:25;10.73;;;7.70;;
16822;SDS011;8528;49.976;11.858;2024-03-23T04:49:50;10.00;;;7.53;;
16822;SDS011;8528;49.976;11.858;2024-03-23T04:52:17;9.33;;;7.30;;
16822;SDS011;8528;49.976;11.858;2024-03-23T04:54:43;8.93;;;7.03;;
16822;SDS011;8528;49.976;11.858;2024-03-23T04:57:09;11.10;;;6.87;;
16822;SDS011;8528;49.976;11.858;2024-03-23T04:59:35;9.83;;;7.00;;
16822;SDS011;8528;49.976;11.858;2024-03-23T05:02:01;9.07;;;6.60;;
16822;SDS011;8528;49.976;11.858;2024-03-23T05:04:28;7.63;;;6.53;;
16822;SDS011;8528;49.976;11.858;2024-03-23T05:06:53;9.43;;;6.43;;
16822;SDS011;8528;49.976;11.858;2024-03-23T05:09:19;12.13;;;6.83;;
16822;SDS011;8528;49.976;11.858;2024-03-23T05:11:46;11.30;;;6.23;;
16822;SDS011;8528;49.976;11.858;2024-03-23T05:14:13;9.33;;;6.87;;
16822;SDS011;8528;49.976;11.858;2024-03-23T05:16:40;7.63;;;6.30;;
16822;SDS011;8528;49.976;11.858;2024-03-23T05:19:06;11.03;;;7.13;;
16822;SDS011;8528;49.976;11.858;2024-03-23T05:21:32;11.30;;;6.93;;
16822;SDS011;8528;49.976;11.858;2024-03-23T05:23:57;9.00;;;7.20;;
16822;SDS011;8528;49.976;11.858;2024-03-23T05:26:23;10.87;;;7.57;;
16822;SDS011;8528;49.976;11.858;2024-03-23T05:28:49;9.73;;;7.10;;
16822;SDS011;8528;49.976;11.858;2024-03-23T05:31:22;8.37;;;7.10;;
16822;SDS011;8528;49.976;11.858;2024-03-23T05:33:52;11.23;;;7.53;;
16822;SDS011;8528;49.976;11.858;2024-03-23T05:36:17;9.87;;;7.03;;
16822;SDS011;8528;49.976;11.858;2024-03-23T05:38:43;9.43;;;7.93;;
16822;SDS011;8528;49.976;11.858;2024-03-23T05:41:10;9.27;;;7.17;;
16822;SDS011;8528;49.976;11.858;2024-03-23T05:43:35;10.27;;;7.00;;
16822;SDS011;8528;49.976;11.858;2024-03-23T05:46:01;9.47;;;7.00;;
16822;SDS011;8528;49.976;11.858;2024-03-23T05:48:28;8.77;;;7.30;;
16822;SDS011;8528;49.976;11.858;2024-03-23T05:50:55;8.27;;;6.70;;
16822;SDS011;8528;49.976;11.858;2024-03-23T05:53:22;7.20;;;6.10;;
16822;SDS011;8528;49.976;11.858;2024-03-23T05:55:48;9.80;;;7.20;;
16822;SDS011;8528;49.976;11.858;2024-03-23T05:58:15;9.57;;;6.77;;
16822;SDS011;8528;49.976;11.858;2024-03-23T06:00:42;8.53;;;6.50;;
16822;SDS011;8528;49.976;11.858;2024-03-23T06:03:09;8.37;;;6.60;;
16822;SDS011;8528;49.976;11.858;2024-03-23T06:05:38;10.73;;;6.80;;
16822;SDS011;8528;49.976;11.858;2024-03-23T06:08:04;9.67;;;6.60;;
16822;SDS011;8528;49.976;11.858;2024-03-23T06:10:30;8.63;;;6.20;;
16822;SDS011;8528;49.976;11.858;2024-03-23T06:12:59;10.87;;;6.20;;
16822;SDS011;8528;49.976;11.858;2024-03-23T06:15:25;7.17;;;6.17;;
16822;SDS011;8528;49.976;11.858;2024-03-23T06:17:52;9.23;;;6.07;;
16822;SDS011;8528;49.976;11.858;2024-03-23T06:20:18;6.80;;;5.80;;
16822;SDS011;8528;49.976;11.858;2024-03-23T06:22:44;7.80;;;5.60;;
16822;SDS011;8528;49.976;11.858;2024-03-23T06:25:10;7.67;;;5.53;;
16822;SDS011;8528;49.976;11.858;2024-03-23T06:27:38;5.80;;;5.20;;
16822;SDS011;8528;49.976;11.858;2024-03-23T06:30:05;9.47;;;5.60;;
16822;SDS011;8528;49.976;11.858;2024-03-23T06:32:31;6.83;;;5.33;;
16822;SDS011;8528;49.976;11.858;2024-03-23T06:34:58;7.57;;;5.27;;
16822;SDS011;8528;49.976;11.858;2024-03-23T06:37:23;6.13;;;5.40;;
16822;SDS011;8528;49.976;11.858;2024-03-23T06:39:49;6.67;;;5.50;;
16822;SDS011;8528;49.976;11.858;2024-03-23T06:42:15;6.97;;;5.27;;
16822;SDS011;8528;49.976;11.858;2024-03-23T06:44:41;7.83;;;5.17;;
16822;SDS011;8528;49.976;11.858;2024-03-23T06:47:08;6.27;;;5.37;;
16822;SDS011;8528;49.976;11.858;2024-03-23T06:49:34;7.93;;;5.43;;
16822;SDS011;8528;49.976;11.858;2024-03-23T06:52:00;6.70;;;5.50;;
16822;SDS011;8528;49.976;11.858;2024-03-23T06:54:26;7.73;;;5.97;;
16822;SDS011;8528;49.976;11.858;2024-03-23T06:56:52;6.90;;;5.80;;
16822;SDS011;8528;49.976;11.858;2024-03-23T06:59:18;7.00;;;5.90;;
16822;SDS011;8528;49.976;11.858;2024-03-23T07:01:44;8.57;;;6.37;;
16822;SDS011;8528;49.976;11.858;2024-03-23T07:04:10;7.93;;;6.47;;
16822;SDS011;8528;49.976;11.858;2024-03-23T07:06:42;8.37;;;5.90;;
16822;SDS011;8528;49.976;11.858;2024-03-23T07:09:09;7.67;;;6.30;;
16822;SDS011;8528;49.976;11.858;2024-03-23T07:11:35;7.83;;;6.10;;
16822;SDS011;8528;49.976;11.858;2024-03-23T07:14:01;8.07;;;6.83;;
16822;SDS011;8528;49.976;11.858;2024-03-23T07:16:28;11.57;;;7.33;;
16822;SDS011;8528;49.976;11.858;2024-03-23T07:18:54;8.47;;;6.90;;
16822;SDS011;8528;49.976;11.858;2024-03-23T07:21:21;10.23;;;7.23;;
16822;SDS011;8528;49.976;11.858;2024-03-23T07:23:47;9.20;;;7.27;;
16822;SDS011;8528;49.976;11.858;2024-03-23T07:26:13;8.83;;;7.40;;
16822;SDS011;8528;49.976;11.858;2024-03-23T07:28:40;8.50;;;7.43;;
16822;SDS011;8528;49.976;11.858;2024-03-23T07:31:11;11.60;;;7.90;;
16822;SDS011;8528;49.976;11.858;2024-03-23T07:33:42;9.20;;;7.40;;
16822;SDS011;8528;49.976;11.858;2024-03-23T07:36:09;12.17;;;9.00;;
16822;SDS011;8528;49.976;11.858;2024-03-23T07:38:36;11.27;;;7.90;;
16822;SDS011;8528;49.976;11.858;2024-03-23T07:41:03;12.50;;;8.23;;
16822;SDS011;8528;49.976;11.858;2024-03-23T07:43:33;12.40;;;8.27;;
16822;SDS011;8528;49.976;11.858;2024-03-23T07:45:59;12.07;;;8.83;;
16822;SDS011;8528;49.976;11.858;2024-03-23T07:48:26;13.87;;;8.60;;
16822;SDS011;8528;49.976;11.858;2024-03-23T07:53:22;11.17;;;8.63;;
16822;SDS011;8528;49.976;11.858;2024-03-23T07:55:52;12.37;;;9.03;;
16822;SDS011;8528;49.976;11.858;2024-03-23T07:58:19;12.33;;;8.83;;
16822;SDS011;8528;49.976;11.858;2024-03-23T08:00:45;13.40;;;8.23;;
16822;SDS011;8528;49.976;11.858;2024-03-23T08:03:11;9.80;;;7.27;;
16822;SDS011;8528;49.976;11.858;2024-03-23T08:05:37;9.00;;;7.50;;
16822;SDS011;8528;49.976;11.858;2024-03-23T08:08:03;11.20;;;6.97;;
16822;SDS011;8528;49.976;11.858;2024-03-23T08:10:29;8.63;;;6.23;;
16822;SDS011;8528;49.976;11.858;2024-03-23T08:12:55;8.27;;;5.53;;
16822;SDS011;8528;49.976;11.858;2024-03-23T08:15:21;7.60;;;6.20;;
16822;SDS011;8528;49.976;11.858;2024-03-23T08:17:47;7.93;;;6.20;;
16822;SDS011;8528;49.976;11.858;2024-03-23T08:20:14;10.23;;;7.10;;
16822;SDS011;8528;49.976;11.858;2024-03-23T08:22:40;8.83;;;6.50;;
16822;SDS011;8528;49.976;11.858;2024-03-23T08:25:06;6.43;;;5.03;;
16822;SDS011;8528;49.976;11.858;2024-03-23T08:27:32;7.07;;;5.00;;
16822;SDS011;8528;49.976;11.858;2024-03-23T08:29:58;6.53;;;4.83;;
16822;SDS011;8528;49.976;11.858;2024-03-23T08:32:24;5.20;;;3.93;;
16822;SDS011;8528;49.976;11.858;2024-03-23T08:34:50;6.67;;;4.40;;
16822;SDS011;8528;49.976;11.858;2024-03-23T08:37:16;5.33;;;4.53;;
16822;SDS011;8528;49.976;11.858;2024-03-23T08:39:43;6.50;;;4.73;;
16822;SDS011;8528;49.976;11.858;2024-03-23T08:42:09;8.07;;;4.90;;
16822;SDS011;8528;49.976;11.858;2024-03-23T08:44:35;6.77;;;5.10;;
16822;SDS011;8528;49.976;11.858;2024-03-23T08:47:01;7.30;;;5.10;;
16822;SDS011;8528;49.976;11.858;2024-03-23T08:49:27;7.77;;;5.73;;
16822;SDS011;8528;49.976;11.858;2024-03-23T08:51:53;5.97;;;5.23;;
16822;SDS011;8528;49.976;11.858;2024-03-23T08:54:19;7.13;;;5.10;;
16822;SDS011;8528;49.976;11.858;2024-03-23T08:56:47;5.67;;;5.07;;
16822;SDS011;8528;49.976;11.858;2024-03-23T08:59:13;8.07;;;5.40;;
16822;SDS011;8528;49.976;11.858;2024-03-23T09:01:39;6.63;;;5.13;;
16822;SDS011;8528;49.976;11.858;2024-03-23T09:04:05;8.13;;;4.93;;
16822;SDS011;8528;49.976;11.858;2024-03-23T09:06:31;7.30;;;4.77;;
16822;SDS011;8528;49.976;11.858;2024-03-23T09:08:57;7.10;;;4.80;;
16822;SDS011;8528;49.976;11.858;2024-03-23T09:11:23;5.63;;;4.23;;
16822;SDS011;8528;49.976;11.858;2024-03-23T09:13:49;6.43;;;4.97;;
16822;SDS011;8528;49.976;11.858;2024-03-23T09:16:15;4.73;;;4.07;;
16822;SDS011;8528;49.976;11.858;2024-03-23T09:18:40;5.67;;;4.30;;
16822;SDS011;8528;49.976;11.858;2024-03-23T09:21:11;5.13;;;3.80;;
16822;SDS011;8528;49.976;11.858;2024-03-23T09:23:38;4.23;;;3.83;;
16822;SDS011;8528;49.976;11.858;2024-03-23T09:26:04;5.60;;;3.67;;
16822;SDS011;8528;49.976;11.858;2024-03-23T09:28:32;4.53;;;3.43;;
16822;SDS011;8528;49.976;11.858;2024-03-23T09:31:05;4.17;;;3.43;;
16822;SDS011;8528;49.976;11.858;2024-03-23T09:33:40;5.33;;;3.47;;
16822;SDS011;8528;49.976;11.858;2024-03-23T09:36:06;4.57;;;3.50;;
16822;SDS011;8528;49.976;11.858;2024-03-23T09:38:33;5.20;;;3.37;;
16822;SDS011;8528;49.976;11.858;2024-03-23T09:40:59;2.77;;;2.43;;
16822;SDS011;8528;49.976;11.858;2024-03-23T09:43:26;2.93;;;2.60;;
16822;SDS011;8528;49.976;11.858;2024-03-23T09:45:52;2.20;;;1.90;;
16822;SDS011;8528;49.976;11.858;2024-03-23T09:48:18;1.67;;;1.50;;
16822;SDS011;8528;49.976;11.858;2024-03-23T09:50:45;2.97;;;1.50;;
16822;SDS011;8528;49.976;11.858;2024-03-23T09:53:12;1.50;;;1.40;;
16822;SDS011;8528;49.976;11.858;2024-03-23T09:55:39;1.00;;;1.00;;
16822;SDS011;8528;49.976;11.858;2024-03-23T09:58:06;1.37;;;1.03;;
16822;SDS011;8528;49.976;11.858;2024-03-23T10:00:33;0.90;;;0.90;;
16822;SDS011;8528;49.976;11.858;2024-03-23T10:02:59;1.20;;;1.10;;
16822;SDS011;8528;49.976;11.858;2024-03-23T10:05:29;1.10;;;1.00;;
16822;SDS011;8528;49.976;11.858;2024-03-23T10:07:57;1.30;;;1.10;;
16822;SDS011;8528;49.976;11.858;2024-03-23T10:10:26;1.50;;;0.93;;
16822;SDS011;8528;49.976;11.858;2024-03-23T10:12:52;1.43;;;1.00;;
16822;SDS011;8528;49.976;11.858;2024-03-23T10:15:23;0.73;;;0.73;;
16822;SDS011;8528;49.976;11.858;2024-03-23T10:17:49;0.70;;;0.70;;
16822;SDS011;8528;49.976;11.858;2024-03-23T10:20:20;1.23;;;0.70;;
16822;SDS011;8528;49.976;11.858;2024-03-23T10:22:49;0.90;;;0.63;;
16822;SDS011;8528;49.976;11.858;2024-03-23T10:25:17;0.60;;;0.60;;
16822;SDS011;8528;49.976;11.858;2024-03-23T10:27:57;0.93;;;0.83;;
16822;SDS011;8528;49.976;11.858;2024-03-23T10:30:25;0.70;;;0.70;;
16822;SDS011;8528;49.976;11.858;2024-03-23T10:35:36;1.10;;;0.80;;
16822;SDS011;8528;49.976;11.858;2024-03-23T10:38:06;0.70;;;0.70;;
16822;SDS011;8528;49.976;11.858;2024-03-23T10:40:36;0.85;;;0.85;;
16822;SDS011;8528;49.976;11.858;2024-03-23T10:43:03;1.08;;;0.57;;
16822;SDS011;8528;49.976;11.858;2024-03-23T10:45:30;0.80;;;0.80;;
16822;SDS011;8528;49.976;11.858;2024-03-23T10:47:56;0.70;;;0.70;;
16822;SDS011;8528;49.976;11.858;2024-03-23T10:50:22;0.73;;;0.73;;
16822;SDS011;8528;49.976;11.858;2024-03-23T10:52:48;1.20;;;0.90;;
16822;SDS011;8528;49.976;11.858;2024-03-23T10:55:18;1.07;;;0.70;;
16822;SDS011;8528;49.976;11.858;2024-03-23T10:57:50;0.90;;;0.90;;
16822;SDS011;8528;49.976;11.858;2024-03-23T11:00:22;1.13;;;1.03;;
16822;SDS011;8528;49.976;11.858;2024-03-23T11:02:48;2.23;;;1.30;;
16822;SDS011;8528;49.976;11.858;2024-03-23T11:07:50;3.00;;;1.80;;
16822;SDS011;8528;49.976;11.858;2024-03-23T11:10:24;2.10;;;1.20;;
16822;SDS011;8528;49.976;11.858;2024-03-23T11:12:58;1.73;;;1.60;;
16822;SDS011;8528;49.976;11.858;2024-03-23T11:15:43;2.00;;;1.70;;
16822;SDS011;8528;49.976;11.858;2024-03-23T11:18:09;2.60;;;1.40;;
16822;SDS011;8528;49.976;11.858;2024-03-23T11:20:35;4.40;;;1.83;;
16822;SDS011;8528;49.976;11.858;2024-03-23T11:23:02;1.93;;;1.53;;
16822;SDS011;8528;49.976;11.858;2024-03-23T11:25:28;2.30;;;1.43;;
16822;SDS011;8528;49.976;11.858;2024-03-23T11:28:09;2.70;;;1.77;;
16822;SDS011;8528;49.976;11.858;2024-03-23T11:30:36;3.57;;;1.90;;
16822;SDS011;8528;49.976;11.858;2024-03-23T11:33:06;3.90;;;1.90;;
16822;SDS011;8528;49.976;11.858;2024-03-23T11:35:34;2.10;;;1.87;;
16822;SDS011;8528;49.976;11.858;2024-03-23T11:38:06;3.17;;;1.80;;
16822;SDS011;8528;49.976;11.858;2024-03-23T11:40:32;2.67;;;1.93;;
16822;SDS011;8528;49.976;11.858;2024-03-23T11:43:00;3.70;;;2.20;;
16822;SDS011;8528;49.976;11.858;2024-03-23T11:45:41;4.17;;;2.13;;
16822;SDS011;8528;49.976;11.858;2024-03-23T11:48:19;3.27;;;1.70;;
16822;SDS011;8528;49.976;11.858;2024-03-23T11:50:46;6.40;;;1.80;;
16822;SDS011;8528;49.976;11.858;2024-03-23T11:53:26;3.17;;;1.90;;
16822;SDS011;8528;49.976;11.858;2024-03-23T11:55:56;3.67;;;2.10;;
16822;SDS011;8528;49.976;11.858;2024-03-23T11:58:23;3.10;;;1.90;;
16822;SDS011;8528;49.976;11.858;2024-03-23T12:00:51;2.10;;;1.70;;
16822;SDS011;8528;49.976;11.858;2024-03-23T12:03:20;3.43;;;1.90;;
16822;SDS011;8528;49.976;11.858;2024-03-23T12:05:51;3.53;;;2.20;;
16822;SDS011;8528;49.976;11.858;2024-03-23T12:08:19;3.90;;;1.90;;
16822;SDS011;8528;49.976;11.858;2024-03-23T12:10:53;4.10;;;1.80;;
16822;SDS011;8528;49.976;11.858;2024-03-23T12:13:38;3.13;;;2.00;;
16822;SDS011;8528;49.976;11.858;2024-03-23T12:16:10;2.80;;;2.00;;
16822;SDS011;8528;49.976;11.858;2024-03-23T12:18:37;5.97;;;2.17;;
16822;SDS011;8528;49.976;11.858;2024-03-23T12:21:03;2.70;;;2.33;;
16822;SDS011;8528;49.976;11.858;2024-03-23T12:23:29;4.40;;;2.00;;
16822;SDS011;8528;49.976;11.858;2024-03-23T12:25:55;3.80;;;2.20;;
16822;SDS011;8528;49.976;11.858;2024-03-23T12:28:21;4.37;;;2.20;;
16822;SDS011;8528;49.976;11.858;2024-03-23T12:30:47;4.67;;;2.50;;
16822;SDS011;8528;49.976;11.858;2024-03-23T12:33:13;4.93;;;2.20;;
16822;SDS011;8528;49.976;11.858;2024-03-23T12:35:39;3.87;;;2.67;;
16822;SDS011;8528;49.976;11.858;2024-03-23T12:38:05;4.03;;;2.20;;
16822;SDS011;8528;49.976;11.858;2024-03-23T12:40:31;4.67;;;2.33;;
16822;SDS011;8528;49.976;11.858;2024-03-23T12:42:57;6.50;;;2.43;;
16822;SDS011;8528;49.976;11.858;2024-03-23T12:45:23;5.17;;;2.30;;
16822;SDS011;8528;49.976;11.858;2024-03-23T12:47:49;4.63;;;2.60;;
16822;SDS011;8528;49.976;11.858;2024-03-23T12:50:14;4.20;;;2.50;;
16822;SDS011;8528;49.976;11.858;2024-03-23T12:52:41;4.97;;;2.43;;
16822;SDS011;8528;49.976;11.858;2024-03-23T12:55:07;4.43;;;2.50;;
16822;SDS011;8528;49.976;11.858;2024-03-23T12:57:33;4.87;;;2.47;;
16822;SDS011;8528;49.976;11.858;2024-03-23T12:59:59;4.53;;;2.50;;
16822;SDS011;8528;49.976;11.858;2024-03-23T13:02:25;1.80;;;1.70;;
16822;SDS011;8528;49.976;11.858;2024-03-23T13:04:52;3.70;;;1.90;;
16822;SDS011;8528;49.976;11.858;2024-03-23T13:07:19;3.67;;;2.30;;
16822;SDS011;8528;49.976;11.858;2024-03-23T13:09:47;4.33;;;2.70;;
16822;SDS011;8528;49.976;11.858;2024-03-23T13:12:15;5.20;;;2.73;;
16822;SDS011;8528;49.976;11.858;2024-03-23T13:14:41;4.30;;;2.30;;
16822;SDS011;8528;49.976;11.858;2024-03-23T13:17:07;3.90;;;2.27;;
16822;SDS011;8528;49.976;11.858;2024-03-23T13:19:33;6.77;;;2.50;;
16822;SDS011;8528;49.976;11.858;2024-03-23T13:22:00;6.13;;;2.30;;
16822;SDS011;8528;49.976;11.858;2024-03-23T13:24:26;5.73;;;2.40;;
16822;SDS011;8528;49.976;11.858;2024-03-23T13:26:53;3.00;;;2.00;;
16822;SDS011;8528;49.976;11.858;2024-03-23T13:29:20;3.60;;;2.50;;
16822;SDS011;8528;49.976;11.858;2024-03-23T13:31:47;3.00;;;2.40;;
16822;SDS011;8528;49.976;11.858;2024-03-23T13:34:15;3.37;;;2.07;;
16822;SDS011;8528;49.976;11.858;2024-03-23T13:36:42;3.30;;;2.47;;
16822;SDS011;8528;49.976;11.858;2024-03-23T13:39:08;2.30;;;1.77;;
16822;SDS011;8528;49.976;11.858;2024-03-23T13:41:41;3.70;;;2.00;;
16822;SDS011;8528;49.976;11.858;2024-03-23T13:44:08;3.77;;;2.00;;
16822;SDS011;8528;49.976;11.858;2024-03-23T13:46:36;3.23;;;2.10;;
16822;SDS011;8528;49.976;11.858;2024-03-23T13:49:03;3.60;;;1.97;;
16822;SDS011;8528;49.976;11.858;2024-03-23T13:51:29;4.13;;;1.90;;
16822;SDS011;8528;49.976;11.858;2024-03-23T13:53:56;2.60;;;1.90;;
16822;SDS011;8528;49.976;11.858;2024-03-23T13:56:22;4.73;;;2.30;;
16822;SDS011;8528;49.976;11.858;2024-03-23T13:58:48;2.47;;;1.90;;
16822;SDS011;8528;49.976;11.858;2024-03-23T14:01:16;3.93;;;2.10;;
16822;SDS011;8528;49.976;11.858;2024-03-23T14:03:42;3.90;;;2.10;;
16822;SDS011;8528;49.976;11.858;2024-03-23T14:06:09;3.23;;;2.20;;
16822;SDS011;8528;49.976;11.858;2024-03-23T14:08:35;4.63;;;2.20;;
16822;SDS011;8528;49.976;11.858;2024-03-23T14:11:05;4.83;;;2.30;;
16822;SDS011;8528;49.976;11.858;2024-03-23T14:13:31;13.17;;;10.13;;
16822;SDS011;8528;49.976;11.858;2024-03-23T14:15:58;7.63;;;5.43;;
16822;SDS011;8528;49.976;11.858;2024-03-23T14:18:24;12.43;;;11.13;;
16822;SDS011;8528;49.976;11.858;2024-03-23T14:20:52;5.03;;;3.97;;
16822;SDS011;8528;49.976;11.858;2024-03-23T14:23:24;6.77;;;4.13;;
16822;SDS011;8528;49.976;11.858;2024-03-23T14:25:52;3.37;;;2.83;;
16822;SDS011;8528;49.976;11.858;2024-03-23T14:28:19;12.23;;;10.30;;
16822;SDS011;8528;49.976;11.858;2024-03-23T14:30:45;5.97;;;4.53;;
16822;SDS011;8528;49.976;11.858;2024-03-23T14:33:11;18.00;;;16.07;;
16822;SDS011;8528;49.976;11.858;2024-03-23T14:35:38;5.10;;;3.73;;
16822;SDS011;8528;49.976;11.858;2024-03-23T14:38:05;8.67;;;6.53;;
16822;SDS011;8528;49.976;11.858;2024-03-23T14:40:31;10.13;;;9.33;;
16822;SDS011;8528;49.976;11.858;2024-03-23T14:42:56;5.23;;;4.30;;
16822;SDS011;8528;49.976;11.858;2024-03-23T14:45:22;8.97;;;6.13;;
16822;SDS011;8528;49.976;11.858;2024-03-23T14:47:53;5.97;;;3.07;;
16822;SDS011;8528;49.976;11.858;2024-03-23T14:50:18;5.20;;;3.43;;
16822;SDS011;8528;49.976;11.858;2024-03-23T14:52:45;8.90;;;7.97;;
16822;SDS011;8528;49.976;11.858;2024-03-23T14:55:11;6.63;;;2.73;;
16822;SDS011;8528;49.976;11.858;2024-03-23T14:57:38;4.30;;;3.10;;
16822;SDS011;8528;49.976;11.858;2024-03-23T15:00:08;5.30;;;3.10;;
16822;SDS011;8528;49.976;11.858;2024-03-23T15:02:38;6.10;;;5.00;;
16822;SDS011;8528;49.976;11.858;2024-03-23T15:05:05;6.47;;;3.27;;
16822;SDS011;8528;49.976;11.858;2024-03-23T15:07:38;2.83;;;2.30;;
16822;SDS011;8528;49.976;11.858;2024-03-23T15:10:05;2.90;;;2.27;;
16822;SDS011;8528;49.976;11.858;2024-03-23T15:12:32;2.33;;;2.03;;
16822;SDS011;8528;49.976;11.858;2024-03-23T15:14:58;6.00;;;2.47;;
16822;SDS011;8528;49.976;11.858;2024-03-23T15:17:25;2.57;;;2.33;;
16822;SDS011;8528;49.976;11.858;2024-03-23T15:19:51;3.00;;;2.00;;
16822;SDS011;8528;49.976;11.858;2024-03-23T15:22:19;4.50;;;2.90;;
16822;SDS011;8528;49.976;11.858;2024-03-23T15:24:46;5.57;;;3.43;;
16822;SDS011;8528;49.976;11.858;2024-03-23T15:27:13;8.70;;;4.90;;
16822;SDS011;8528;49.976;11.858;2024-03-23T15:29:39;5.23;;;2.93;;
16822;SDS011;8528;49.976;11.858;2024-03-23T15:32:05;23.90;;;17.20;;
16822;SDS011;8528;49.976;11.858;2024-03-23T15:34:31;5.40;;;4.50;;
16822;SDS011;8528;49.976;11.858;2024-03-23T15:36:57;4.33;;;3.10;;
16822;SDS011;8528;49.976;11.858;2024-03-23T15:39:22;3.90;;;2.43;;
16822;SDS011;8528;49.976;11.858;2024-03-23T15:41:48;5.37;;;3.80;;
16822;SDS011;8528;49.976;11.858;2024-03-23T15:44:14;4.97;;;2.83;;